createdAt,value
2017-06-21T00:02:12.707Z,28.33
2017-06-21T00:06:13.093Z,28.37
2017-06-21T00:08:37.849Z,28.27
2017-06-21T00:11:02.543Z,28.09
2017-06-21T00:13:42.908Z,28.09
2017-06-21T00:16:08.527Z,28.2
2017-06-21T00:18:33.432Z,28.08
2017-06-21T00:20:58.111Z,28.01
2017-06-21T00:23:29.482Z,28.22
2017-06-21T00:25:45.783Z,28.19
2017-06-21T00:28:03.920Z,28.16
2017-06-21T00:30:20.116Z,28.15
2017-06-21T00:32:44.710Z,28.09
2017-06-21T00:35:00.911Z,27.97
2017-06-21T00:37:25.605Z,27.63
2017-06-21T00:39:50.329Z,27.78
2017-06-21T00:42:14.898Z,27.64
2017-06-21T00:44:16.420Z,27.79
2017-06-21T00:46:47.800Z,27.43
2017-06-21T00:49:12.501Z,27.34
2017-06-21T00:51:37.197Z,27.52
2017-06-21T00:54:01.790Z,27.58
2017-06-21T00:56:28.433Z,27.45
2017-06-21T00:59:00.808Z,27.55
2017-06-21T01:01:26.421Z,27.6
2017-06-21T01:03:53.068Z,27.53
2017-06-21T01:06:19.711Z,27.48
2017-06-21T01:08:35.905Z,27.3
2017-06-21T01:11:01.521Z,27.4
2017-06-21T01:13:26.119Z,27.5
2017-06-21T01:15:59.313Z,27.63
2017-06-21T01:18:24.017Z,27.48
2017-06-21T01:20:49.641Z,27.55
2017-06-21T01:22:51.637Z,27.67
2017-06-21T01:25:09.838Z,27.5
2017-06-21T01:27:34.431Z,27.5
2017-06-21T01:29:59.129Z,27.58
2017-06-21T01:32:31.502Z,27.47
2017-06-21T01:34:56.201Z,27.4
2017-06-21T01:37:21.910Z,27.19
2017-06-21T01:39:54.505Z,27.19
2017-06-21T01:42:26.985Z,27.43
2017-06-21T01:45:08.474Z,27.23
2017-06-21T01:47:34.090Z,27.23
2017-06-21T01:50:00.631Z,26.93
2017-06-21T01:52:25.226Z,26.92
2017-06-21T01:54:49.818Z,27.11
2017-06-21T01:57:06.931Z,26.82
2017-06-21T01:59:32.555Z,26.19
2017-06-21T02:02:04.013Z,26.53
2017-06-21T02:04:28.606Z,26.56
2017-06-21T02:07:00.980Z,26.23
2017-06-21T02:09:34.516Z,26.16
2017-06-21T02:11:59.080Z,26.06
2017-06-21T02:14:23.572Z,26.13
2017-06-21T02:17:04.024Z,26.06
2017-06-21T02:19:29.657Z,26.18
2017-06-21T02:22:11.042Z,26.19
2017-06-21T02:24:50.491Z,26.27
2017-06-21T02:27:22.967Z,26.01
2017-06-21T02:29:54.014Z,25.78
2017-06-21T02:32:20.550Z,26.1
2017-06-21T02:34:47.093Z,25.8
2017-06-21T02:36:57.643Z,25.62
2017-06-21T02:39:23.173Z,25.67
2017-06-21T02:41:54.523Z,25.66
2017-06-21T02:44:34.992Z,25.58
2017-06-21T02:46:59.481Z,25.68
2017-06-21T02:49:15.578Z,25.52
2017-06-21T02:51:31.563Z,25.3
2017-06-21T02:53:47.562Z,25.54
2017-06-21T02:56:19.014Z,25.33
2017-06-21T02:58:51.494Z,25.22
2017-06-21T03:00:58.990Z,25.22
2017-06-21T03:03:23.476Z,25
2017-06-21T03:05:54.523Z,24.77
2017-06-21T03:08:19.017Z,24.86
2017-06-21T03:10:29.045Z,24.94
2017-06-21T03:12:54.585Z,25.14
2017-06-21T03:15:25.936Z,24.99
2017-06-21T03:17:50.457Z,24.88
2017-06-21T03:20:14.913Z,25.03
2017-06-21T03:22:47.916Z,25.07
2017-06-21T03:25:13.332Z,24.75
2017-06-21T03:27:14.907Z,24.74
2017-06-21T03:29:38.657Z,24.82
2017-06-21T03:32:04.068Z,24.69
2017-06-21T03:34:28.456Z,24.74
2017-06-21T03:36:52.851Z,24.48
2017-06-21T03:39:24.202Z,24.18
2017-06-21T03:41:48.593Z,24.26
2017-06-21T03:44:15.029Z,24.43
2017-06-21T03:46:54.150Z,24.79
2017-06-21T03:49:20.598Z,24.74
2017-06-21T03:51:45.092Z,25.12
2017-06-21T03:54:26.175Z,25.24
2017-06-21T03:56:58.131Z,25.22
2017-06-21T03:59:23.574Z,25.15
2017-06-21T04:01:55.624Z,25.34
2017-06-21T04:04:34.655Z,25.66
2017-06-21T04:06:51.668Z,25.81
2017-06-21T04:09:17.185Z,25.56
2017-06-21T04:11:41.668Z,25.29
2017-06-21T04:14:07.187Z,25.44
2017-06-21T04:16:31.675Z,25.68
2017-06-21T04:19:03.651Z,25.86
2017-06-21T04:21:28.142Z,26.85
2017-06-21T04:23:52.739Z,28.53
2017-06-21T04:26:17.334Z,29.8
2017-06-21T04:28:42.031Z,30.76
2017-06-21T04:31:13.687Z,31.87
2017-06-21T04:33:30.207Z,33.19
2017-06-21T04:36:02.162Z,35.23
2017-06-21T04:38:28.277Z,35.84
2017-06-21T04:40:54.524Z,36.62
2017-06-21T04:43:19.835Z,37.94
2017-06-21T04:45:45.248Z,38.16
2017-06-21T04:48:02.266Z,38.48
2017-06-21T04:50:27.885Z,39.59
2017-06-21T04:52:53.573Z,40
2017-06-21T04:55:21.377Z,39.12
2017-06-21T04:57:48.213Z,39.26
2017-06-21T05:00:16.093Z,40.86
2017-06-21T05:02:43.040Z,41.52
2017-06-21T05:05:15.727Z,41
2017-06-21T05:07:42.772Z,41.34
2017-06-21T05:11:44.678Z,39.71
2017-06-21T05:14:10.781Z,38.46
2017-06-21T05:18:12.580Z,39.3
2017-06-21T05:22:14.340Z,40.73
2017-06-21T05:24:32.781Z,40.51
2017-06-21T05:27:06.597Z,40.74
2017-06-21T05:29:32.720Z,40.36
2017-06-21T05:32:05.626Z,39.12
2017-06-21T05:34:33.690Z,39.19
2017-06-21T05:38:51.870Z,40.44
2017-06-21T05:41:20.010Z,39.8
2017-06-21T05:43:52.294Z,41.88
2017-06-21T05:46:18.527Z,40.49
2017-06-21T05:48:52.353Z,38.2
2017-06-21T05:51:10.079Z,42.52
2017-06-21T05:53:36.415Z,43.65
2017-06-21T05:55:54.145Z,43.92
2017-06-21T05:58:20.480Z,41.99
2017-06-21T06:00:47.450Z,38.27
2017-06-21T06:03:13.366Z,34.59
2017-06-21T06:05:39.587Z,38.57
2017-06-21T06:08:05.712Z,40.89
2017-06-21T06:10:23.346Z,37.06
2017-06-21T06:12:25.255Z,37.04
2017-06-21T06:14:51.543Z,39.7
2017-06-21T06:17:17.769Z,40.67
2017-06-21T06:19:44.106Z,38.23
2017-06-21T06:22:10.452Z,38.73
2017-06-21T06:24:28.175Z,41.34
2017-06-21T06:26:45.911Z,41.36
2017-06-21T06:29:12.243Z,40.95
2017-06-21T06:31:38.580Z,40.17
2017-06-21T06:34:05.015Z,37.72
2017-06-21T06:36:31.458Z,37.19
2017-06-21T06:38:49.306Z,37.47
2017-06-21T06:41:15.789Z,36.92
2017-06-21T06:43:42.224Z,38.75
2017-06-21T06:46:08.624Z,39.2
2017-06-21T06:48:10.580Z,37.67
2017-06-21T06:50:36.943Z,37.6
2017-06-21T06:53:03.210Z,38.68
2017-06-21T06:55:29.370Z,39.86
2017-06-21T06:57:55.523Z,36.72
2017-06-21T07:00:21.599Z,36.76
2017-06-21T07:02:14.934Z,36.41
2017-06-21T07:04:40.966Z,37.18
2017-06-21T07:06:42.770Z,37.73
2017-06-21T07:08:51.631Z,38.57
2017-06-21T07:11:17.544Z,39.51
2017-06-21T07:13:43.439Z,40.29
2017-06-21T07:16:09.307Z,40.16
2017-06-21T07:18:26.643Z,41.55
2017-06-21T07:20:52.592Z,42.93
2017-06-21T07:23:10.047Z,42.74
2017-06-21T07:25:36.092Z,42.61
2017-06-21T07:27:46.635Z,42.63
2017-06-21T07:30:04.239Z,41.8
2017-06-21T07:32:30.360Z,41.96
2017-06-21T07:34:56.505Z,40.7
2017-06-21T07:37:22.647Z,39.59
2017-06-21T07:39:48.785Z,42.82
2017-06-21T07:42:14.927Z,41.76
2017-06-21T07:44:41.099Z,41.45
2017-06-21T07:47:07.297Z,38.73
2017-06-21T07:49:09.195Z,40.85
2017-06-21T07:51:35.469Z,41.04
2017-06-21T07:53:53.115Z,42.02
2017-06-21T07:56:10.745Z,40.86
2017-06-21T07:58:36.969Z,42.09
2017-06-21T08:00:54.603Z,40.23
2017-06-21T08:03:20.831Z,41.04
2017-06-21T08:05:47.069Z,41.18
2017-06-21T08:08:13.302Z,41.73
2017-06-21T08:10:39.580Z,42.39
2017-06-21T08:13:05.901Z,42.51
2017-06-21T08:15:23.677Z,43.11
2017-06-21T08:17:50.054Z,44.6
2017-06-21T08:20:07.862Z,43.11
2017-06-21T08:22:34.286Z,42.99
2017-06-21T08:25:00.686Z,44.77
2017-06-21T08:27:27.107Z,45.83
2017-06-21T08:29:29.186Z,44.95
2017-06-21T08:31:47.098Z,43.12
2017-06-21T08:34:13.541Z,42.92
2017-06-21T08:36:39.979Z,43.28
2017-06-21T08:38:33.364Z,45.11
2017-06-21T08:40:44.001Z,45.48
2017-06-21T08:43:10.485Z,46.01
2017-06-21T08:45:36.936Z,47.16
2017-06-21T08:48:03.396Z,45.3
2017-06-21T08:50:29.817Z,46.61
2017-06-21T08:52:56.289Z,46.22
2017-06-21T08:55:22.815Z,46.88
2017-06-21T08:57:49.338Z,48.08
2017-06-21T09:00:07.339Z,47.44
2017-06-21T09:02:09.331Z,47.58
2017-06-21T09:04:35.947Z,47.28
2017-06-21T09:07:02.585Z,47.96
2017-06-21T09:09:29.197Z,48.86
2017-06-21T09:11:55.825Z,48.14
2017-06-21T09:14:13.883Z,45.83
2017-06-21T09:16:40.500Z,45.54
2017-06-21T09:19:07.099Z,44.8
2017-06-21T09:21:33.688Z,46.51
2017-06-21T09:24:00.278Z,45.78
2017-06-21T09:26:26.842Z,46.85
2017-06-21T09:28:44.806Z,45.95
2017-06-21T09:30:38.212Z,45.61
2017-06-21T09:33:04.760Z,46.4
2017-06-21T09:35:22.686Z,46.85
2017-06-21T09:37:49.158Z,46.42
2017-06-21T09:40:07.013Z,46.81
2017-06-21T09:42:16.297Z,46.68
2017-06-21T09:44:34.142Z,45.61
2017-06-21T09:46:51.995Z,45.59
2017-06-21T09:49:18.382Z,46.05
2017-06-21T09:51:44.786Z,45.7
2017-06-21T09:54:11.178Z,46.04
2017-06-21T09:56:37.600Z,46.1
2017-06-21T09:58:39.571Z,46.66
2017-06-21T10:00:57.452Z,46.9
2017-06-21T10:03:23.793Z,46.24
2017-06-21T10:05:50.159Z,43.36
2017-06-21T10:08:07.969Z,42.73
2017-06-21T10:10:34.300Z,40.71
2017-06-21T10:13:00.598Z,41.34
2017-06-21T10:15:26.851Z,41
2017-06-21T10:17:53.011Z,41.24
2017-06-21T10:20:19.166Z,40.92
2017-06-21T10:22:45.293Z,41.3
2017-06-21T10:25:11.383Z,41.67
2017-06-21T10:27:37.421Z,40.92
2017-06-21T10:29:54.901Z,40.04
2017-06-21T10:32:20.920Z,38.65
2017-06-21T10:34:46.917Z,39.11
2017-06-21T10:37:12.870Z,39.97
2017-06-21T10:39:30.203Z,38.23
2017-06-21T10:41:47.530Z,39.44
2017-06-21T10:44:13.371Z,39.48
2017-06-21T10:46:39.246Z,38.72
2017-06-21T10:49:05.113Z,38.73
2017-06-21T10:51:30.939Z,38.87
2017-06-21T10:53:57.754Z,38.34
2017-06-21T10:56:14.992Z,38.56
2017-06-21T10:58:32.201Z,38.9
2017-06-21T11:00:57.982Z,38.88
2017-06-21T11:03:23.739Z,39.45
2017-06-21T11:05:40.993Z,38.85
2017-06-21T11:08:06.729Z,37.82
2017-06-21T11:10:23.947Z,37.71
2017-06-21T11:12:49.649Z,37.22
2017-06-21T11:15:15.365Z,37.92
2017-06-21T11:17:41.050Z,38.72
2017-06-21T11:20:06.742Z,38.92
2017-06-21T11:22:32.433Z,38.87
2017-06-21T11:24:58.078Z,38.69
2017-06-21T11:27:15.194Z,38.25
2017-06-21T11:29:40.837Z,38.12
2017-06-21T11:32:06.491Z,37.97
2017-06-21T11:34:32.124Z,37.38
2017-06-21T11:36:49.199Z,37.66
2017-06-21T11:38:50.973Z,37.56
2017-06-21T11:41:08.115Z,38.16
2017-06-21T11:43:33.735Z,37.34
2017-06-21T11:45:59.342Z,37.58
2017-06-21T11:48:24.947Z,37.47
2017-06-21T11:50:50.523Z,37.95
2017-06-21T11:53:16.129Z,38.22
2017-06-21T11:55:41.729Z,37.41
2017-06-21T11:57:58.789Z,37.38
2017-06-21T12:00:24.373Z,37.11
2017-06-21T12:02:49.981Z,37.31
2017-06-21T12:05:15.624Z,37.11
2017-06-21T12:07:26.002Z,37.37
2017-06-21T12:09:51.608Z,37.8
2017-06-21T12:12:17.137Z,38.04
2017-06-21T12:14:42.708Z,38.1
2017-06-21T12:17:08.273Z,37.88
2017-06-21T12:19:33.857Z,38.01
2017-06-21T12:21:59.469Z,38.34
2017-06-21T12:23:35.381Z,38.73
2017-06-21T12:26:01.018Z,37.29
2017-06-21T12:28:26.624Z,38.28
2017-06-21T12:30:52.218Z,38.19
2017-06-21T12:33:17.797Z,37.43
2017-06-21T12:35:43.361Z,37.44
2017-06-21T12:38:08.964Z,37.73
2017-06-21T12:39:54.152Z,38.13
2017-06-21T12:42:19.772Z,37.15
2017-06-21T12:44:45.386Z,37.34
2017-06-21T12:47:11.000Z,37.36
2017-06-21T12:49:28.021Z,37.85
2017-06-21T12:51:53.567Z,38.56
2017-06-21T12:53:46.799Z,38.38
2017-06-21T12:56:12.422Z,37.18
2017-06-21T12:58:29.463Z,38.01
2017-06-21T13:00:55.041Z,37.8
2017-06-21T13:03:12.096Z,37.63
2017-06-21T13:05:37.676Z,37.16
2017-06-21T13:08:03.212Z,37.01
2017-06-21T13:10:28.737Z,37.21
2017-06-21T13:12:54.313Z,37.36
2017-06-21T13:15:19.834Z,37.18
2017-06-21T13:17:45.396Z,37.38
2017-06-21T13:19:47.126Z,37.63
2017-06-21T13:22:04.158Z,37.66
2017-06-21T13:24:29.662Z,37.75
2017-06-21T13:26:46.652Z,37.48
2017-06-21T13:29:12.175Z,37.76
2017-06-21T13:31:37.737Z,36.51
2017-06-21T13:34:03.254Z,36.53
2017-06-21T13:36:28.801Z,37.1
2017-06-21T13:38:54.329Z,37.18
2017-06-21T13:41:19.879Z,37.11
2017-06-21T13:43:45.450Z,36.97
2017-06-21T13:46:02.484Z,36.89
2017-06-21T13:48:28.016Z,37.14
2017-06-21T13:50:53.551Z,37.1
2017-06-21T13:53:19.076Z,37.68
2017-06-21T13:55:29.455Z,37.98
2017-06-21T13:57:55.040Z,37.6
2017-06-21T14:00:20.586Z,37.73
2017-06-21T14:02:29.080Z,37.44
2017-06-21T14:04:54.643Z,37.48
2017-06-21T14:07:20.209Z,37.79
2017-06-21T14:09:45.800Z,37.88
2017-06-21T14:12:02.852Z,37.64
2017-06-21T14:14:28.376Z,37.57
2017-06-21T14:16:45.425Z,37.83
2017-06-21T14:19:10.963Z,37.11
2017-06-21T14:21:36.496Z,37.72
2017-06-21T14:23:53.542Z,37.4
2017-06-21T14:26:19.051Z,37.66
2017-06-21T14:28:44.609Z,37.1
2017-06-21T14:31:10.158Z,37.6
2017-06-21T14:33:27.167Z,37.31
2017-06-21T14:35:44.141Z,37.47
2017-06-21T14:38:09.631Z,37.28
2017-06-21T14:40:35.148Z,37.86
2017-06-21T14:43:00.655Z,38.32
2017-06-21T14:45:02.390Z,37.88
2017-06-21T14:47:19.418Z,37.31
2017-06-21T14:49:44.929Z,37.37
2017-06-21T14:52:10.448Z,37.54
2017-06-21T14:54:35.967Z,37.57
2017-06-21T14:57:01.485Z,37.6
2017-06-21T14:59:27.016Z,37.78
2017-06-21T15:01:52.542Z,37.18
2017-06-21T15:04:18.090Z,37.16
2017-06-21T15:06:35.114Z,36.81
2017-06-21T15:09:00.731Z,37.07
2017-06-21T15:11:26.238Z,37.1
2017-06-21T15:13:51.710Z,36.84
2017-06-21T15:16:00.323Z,36.7
2017-06-21T15:18:17.312Z,37.1
2017-06-21T15:20:42.782Z,36.82
2017-06-21T15:23:08.297Z,36.92
2017-06-21T15:25:33.749Z,37.26
2017-06-21T15:27:59.249Z,37.14
2017-06-21T15:30:24.756Z,37.31
2017-06-21T15:32:34.313Z,36.96
2017-06-21T15:34:59.842Z,36.91
2017-06-21T15:37:25.453Z,36.7
2017-06-21T15:39:50.966Z,36.65
2017-06-21T15:42:16.588Z,36.16
2017-06-21T15:44:42.097Z,36.38
2017-06-21T15:47:07.727Z,36.26
2017-06-21T15:49:34.258Z,36.73
2017-06-21T15:51:59.880Z,37.09
2017-06-21T15:54:10.291Z,36.73
2017-06-21T15:56:35.857Z,36.53
2017-06-21T15:59:01.368Z,36.54
2017-06-21T16:01:18.386Z,36.87
2017-06-21T16:03:43.907Z,36.03
2017-06-21T16:06:11.364Z,36.53
2017-06-21T16:08:28.489Z,36.73
2017-06-21T16:10:54.003Z,36.7
2017-06-21T16:13:19.614Z,36.03
2017-06-21T16:15:45.474Z,36.62
2017-06-21T16:18:11.070Z,36.76
2017-06-21T16:20:05.808Z,36.97
2017-06-21T16:22:32.288Z,36.88
2017-06-21T16:24:57.805Z,36.72
2017-06-21T16:27:24.350Z,36.35
2017-06-21T16:29:38.009Z,36.47
2017-06-21T16:31:56.021Z,36.51
2017-06-21T16:34:21.542Z,36.63
2017-06-21T16:36:46.944Z,36.47
2017-06-21T16:39:07.655Z,36.54
2017-06-21T16:41:33.067Z,36.16
2017-06-21T16:44:07.489Z,35.54
2017-06-21T16:46:33.270Z,36.22
2017-06-21T16:49:04.989Z,35.68
2017-06-21T16:51:30.389Z,35.98
2017-06-21T16:53:55.802Z,36.16
2017-06-21T16:55:58.009Z,36.38
2017-06-21T16:58:24.508Z,36.17
2017-06-21T17:00:41.420Z,35.93
2017-06-21T17:02:58.337Z,35.9
2017-06-21T17:05:24.779Z,35.9
2017-06-21T17:07:50.289Z,35.68
2017-06-21T17:10:15.938Z,35.9
2017-06-21T17:12:41.324Z,35.88
2017-06-21T17:14:45.566Z,35.72
2017-06-21T17:17:11.060Z,35.74
2017-06-21T17:19:36.469Z,35.59
2017-06-21T17:22:01.878Z,35.88
2017-06-21T17:23:55.054Z,36.03
2017-06-21T17:26:20.552Z,36.28
2017-06-21T17:28:45.961Z,36.18
2017-06-21T17:31:02.876Z,36.25
2017-06-21T17:33:28.294Z,35.9
2017-06-21T17:35:53.702Z,35.75
2017-06-21T17:38:19.120Z,35.66
2017-06-21T17:40:36.038Z,35.78
2017-06-21T17:43:01.446Z,36.03
2017-06-21T17:45:11.781Z,35.96
2017-06-21T17:47:32.003Z,35.88
2017-06-21T17:49:57.441Z,35.96
2017-06-21T17:52:22.837Z,35.79
2017-06-21T17:54:48.240Z,35.88
2017-06-21T17:57:14.676Z,35.47
2017-06-21T17:59:40.087Z,35.45
2017-06-21T18:02:05.531Z,35.38
2017-06-21T18:04:22.314Z,34.93
2017-06-21T18:06:47.568Z,34.78
2017-06-21T18:09:12.832Z,35.07
2017-06-21T18:11:38.152Z,35.05
2017-06-21T18:14:03.452Z,35.12
2017-06-21T18:16:28.763Z,35.07
2017-06-21T18:18:45.576Z,35.04
2017-06-21T18:21:12.938Z,34.97
2017-06-21T18:23:53.097Z,34.85
2017-06-21T18:26:10.333Z,34.73
2017-06-21T18:28:36.554Z,34.58
2017-06-21T18:30:29.725Z,34.51
2017-06-21T18:32:56.040Z,34.66
2017-06-21T18:35:21.353Z,34.62
2017-06-21T18:37:54.546Z,34.46
2017-06-21T18:40:19.847Z,34.48
2017-06-21T18:42:45.159Z,34.43
2017-06-21T18:45:11.395Z,34.11
2017-06-21T18:47:36.558Z,34.16
2017-06-21T18:49:38.253Z,34.13
2017-06-21T18:51:55.999Z,33.97
2017-06-21T18:54:06.747Z,34.04
2017-06-21T18:56:32.068Z,33.95
2017-06-21T18:58:57.286Z,33.92
2017-06-21T19:01:22.444Z,33.87
2017-06-21T19:03:48.624Z,33.79
2017-06-21T19:06:13.834Z,33.39
2017-06-21T19:08:39.042Z,33.39
2017-06-21T19:11:05.172Z,33.55
2017-06-21T19:13:21.882Z,33.53
2017-06-21T19:15:47.090Z,33.47
2017-06-21T19:18:12.295Z,33.38
2017-06-21T19:20:37.403Z,33.5
2017-06-21T19:22:39.849Z,33.47
2017-06-21T19:25:05.090Z,33.36
2017-06-21T19:27:30.199Z,33.2
2017-06-21T19:29:55.302Z,33.05
2017-06-21T19:32:20.408Z,33.15
2017-06-21T19:34:32.596Z,33.03
2017-06-21T19:36:57.741Z,32.9
2017-06-21T19:39:22.938Z,33.03
2017-06-21T19:41:39.746Z,32.91
2017-06-21T19:44:04.846Z,32.93
2017-06-21T19:46:21.865Z,32.83
2017-06-21T19:48:46.967Z,32.85
2017-06-21T19:51:12.070Z,32.82
2017-06-21T19:53:28.674Z,32.85
2017-06-21T19:55:54.808Z,32.73
2017-06-21T19:58:19.916Z,32.76
2017-06-21T20:00:46.048Z,32.78
2017-06-21T20:03:11.148Z,32.59
2017-06-21T20:05:36.260Z,32.51
2017-06-21T20:08:01.371Z,32.6
2017-06-21T20:10:26.468Z,32.42
2017-06-21T20:12:51.576Z,32.49
2017-06-21T20:14:53.229Z,32.39
2017-06-21T20:16:29.147Z,32.15
2017-06-21T20:18:55.313Z,31.64
2017-06-21T20:21:26.974Z,31.86
2017-06-21T20:23:43.475Z,31.95
2017-06-21T20:25:54.128Z,31.79
2017-06-21T20:27:56.053Z,31.97
2017-06-21T20:30:21.112Z,31.72
2017-06-21T20:32:38.647Z,31.77
2017-06-21T20:35:03.649Z,31.77
2017-06-21T20:37:29.772Z,31.85
2017-06-21T20:39:54.879Z,31.77
2017-06-21T20:42:26.541Z,31.78
2017-06-21T20:44:51.543Z,31.69
2017-06-21T20:47:16.674Z,31.67
2017-06-21T20:49:42.704Z,31.69
2017-06-21T20:52:09.728Z,31.51
2017-06-21T20:54:26.233Z,31.63
2017-06-21T20:56:51.242Z,31.45
2017-06-21T20:59:17.273Z,31.42
2017-06-21T21:01:33.767Z,31.36
2017-06-21T21:03:58.773Z,31.47
2017-06-21T21:06:08.931Z,31.48
2017-06-21T21:08:33.934Z,31.52
2017-06-21T21:10:58.903Z,31.5
2017-06-21T21:13:23.836Z,31.39
2017-06-21T21:15:40.345Z,31.36
2017-06-21T21:18:05.355Z,31.23
2017-06-21T21:20:30.406Z,31.1
2017-06-21T21:22:55.354Z,31.11
2017-06-21T21:25:20.356Z,31.08
2017-06-21T21:27:45.473Z,31.05
2017-06-21T21:30:01.809Z,31.04
2017-06-21T21:32:27.893Z,30.95
2017-06-21T21:34:52.896Z,30.98
2017-06-21T21:37:17.794Z,30.7
2017-06-21T21:39:34.196Z,30.46
2017-06-21T21:41:59.097Z,30.23
2017-06-21T21:44:23.998Z,30.32
2017-06-21T21:46:48.911Z,30.23
2017-06-21T21:48:42.498Z,30.13
2017-06-21T21:51:07.470Z,30.14
2017-06-21T21:53:32.377Z,29.89
2017-06-21T21:55:34.425Z,29.98
2017-06-21T21:57:59.337Z,29.96
2017-06-21T22:00:24.241Z,29.86
2017-06-21T22:02:40.637Z,29.89
2017-06-21T22:05:05.541Z,29.71
2017-06-21T22:07:30.344Z,29.64
2017-06-21T22:09:55.246Z,29.62
2017-06-21T22:12:20.145Z,29.53
2017-06-21T22:14:37.468Z,29.46
2017-06-21T22:17:02.261Z,29.53
2017-06-21T22:19:27.066Z,29.42
2017-06-21T22:21:37.864Z,29.46
2017-06-21T22:24:02.736Z,29.49
2017-06-21T22:26:27.536Z,29.46
2017-06-21T22:28:52.361Z,29.46
2017-06-21T22:30:54.400Z,29.4
2017-06-21T22:33:19.198Z,29.1
2017-06-21T22:35:43.998Z,29.09
2017-06-21T22:38:08.698Z,29.03
2017-06-21T22:40:33.489Z,29.09
2017-06-21T22:42:49.792Z,29.03
2017-06-21T22:45:00.372Z,29.09
2017-06-21T22:47:25.168Z,29.03
2017-06-21T22:49:49.852Z,28.94
2017-06-21T22:52:14.648Z,28.71
2017-06-21T22:54:39.455Z,28.87
2017-06-21T22:57:04.145Z,28.92
2017-06-21T22:59:20.443Z,29.12
2017-06-21T23:01:45.246Z,28.9
2017-06-21T23:04:09.942Z,28.56
2017-06-21T23:06:11.977Z,28.57
2017-06-21T23:08:36.713Z,28.86
2017-06-21T23:11:01.506Z,28.8
2017-06-21T23:12:56.120Z,28.74
2017-06-21T23:15:20.890Z,28.74
2017-06-21T23:17:45.586Z,28.57
2017-06-21T23:20:11.309Z,28.53
2017-06-21T23:22:36.004Z,28.52
2017-06-21T23:25:00.702Z,28.5
2017-06-21T23:27:25.401Z,28.41
2017-06-21T23:29:50.201Z,28.49
2017-06-21T23:32:14.896Z,28.35
2017-06-21T23:34:39.589Z,28.43
2017-06-21T23:37:04.287Z,28.6
2017-06-21T23:39:28.981Z,28.53
2017-06-21T23:41:53.681Z,28.53
2017-06-21T23:44:18.274Z,28.57
2017-06-21T23:46:42.969Z,28.52
2017-06-21T23:49:07.775Z,28.55
2017-06-21T23:51:24.063Z,28.5
2017-06-21T23:53:40.267Z,28.45
2017-06-21T23:56:04.948Z,28.56
2017-06-21T23:58:06.971Z,28.59
